Time;durP1;ratioP1;P1;durP2;ratioP2;P2;SDS_P1;SDS_P2;PMS_P1;PMS_P2;Temp;Humidity;BMP_temperature;BMP_pressure;BME280_temperature;BME280_humidity;BME280_pressure;Samples;Min_cycle;Max_cycle;Signal;HPM_P1;HPM_P2
2022/06/20 00:00:46;;;;;;;9.70;2.43;;;19.70;99.90;;;;;;4146853;28;20211;-79
2022/06/20 00:02:51;;;;;;;10.60;2.53;;;19.70;99.90;;;;;;4150180;28;20238;-77
2022/06/20 00:04:55;;;;;;;6.93;2.67;;;19.70;99.90;;;;;;4146860;28;20631;-76
2022/06/20 00:06:57;;;;;;;5.27;2.50;;;19.70;99.90;;;;;;4145111;28;20248;-77
2022/06/20 00:09:00;;;;;;;9.07;2.77;;;19.70;99.90;;;;;;4148600;28;20232;-77
2022/06/20 00:11:02;;;;;;;10.47;2.50;;;19.70;99.90;;;;;;4145498;28;20672;-79
2022/06/20 00:13:04;;;;;;;7.97;2.50;;;19.70;99.90;;;;;;4142896;28;20320;-77
2022/06/20 00:15:07;;;;;;;6.07;2.17;;;19.60;99.90;;;;;;4139968;28;20208;-78
2022/06/20 00:17:14;;;;;;;7.27;2.43;;;19.60;99.90;;;;;;4135233;28;20575;-77
2022/06/20 00:19:16;;;;;;;8.57;2.60;;;19.60;99.90;;;;;;4143070;28;20612;-77
2022/06/20 00:21:21;;;;;;;6.03;2.33;;;19.60;99.90;;;;;;4138562;28;20314;-79
2022/06/20 00:23:23;;;;;;;9.17;2.57;;;19.60;99.90;;;;;;4143143;28;20771;-77
2022/06/20 00:25:25;;;;;;;7.23;2.50;;;19.60;99.90;;;;;;4147476;28;20692;-78
2022/06/20 00:27:27;;;;;;;4.73;2.37;;;19.60;99.90;;;;;;4144418;28;20628;-78
2022/06/20 00:29:29;;;;;;;9.20;2.73;;;19.60;99.90;;;;;;4146078;28;20215;-77
2022/06/20 00:31:31;;;;;;;5.67;2.27;;;19.60;99.90;;;;;;4147566;28;20612;-78
2022/06/20 00:33:35;;;;;;;6.60;2.37;;;19.50;99.90;;;;;;4146919;28;20246;-78
2022/06/20 00:35:37;;;;;;;7.37;2.67;;;19.50;99.90;;;;;;4136060;28;20205;-76
2022/06/20 00:37:39;;;;;;;6.60;2.87;;;19.50;99.90;;;;;;4137731;28;20222;-77
2022/06/20 03:57:33;;;;;;;8.67;4.03;;;17.90;99.90;;;;;;4142425;28;20618;-78
2022/06/20 03:59:40;;;;;;;7.87;3.50;;;18.10;99.90;;;;;;4148409;28;20232;-77
2022/06/20 04:01:48;;;;;;;8.00;3.53;;;18.10;99.90;;;;;;4147596;28;20215;-76
2022/06/20 04:03:57;;;;;;;7.67;3.83;;;18.10;99.90;;;;;;4137524;28;20251;-76
2022/06/20 04:06:05;;;;;;;8.23;3.70;;;18.20;99.90;;;;;;4142734;28;20311;-76
2022/06/20 04:08:14;;;;;;;5.73;3.23;;;18.20;99.90;;;;;;4151697;28;21729;-76
2022/06/20 04:12:59;;;;;;;9.37;4.30;;;18.20;99.90;;;;;;4160851;28;20251;-77
2022/06/20 04:15:08;;;;;;;5.73;4.00;;;18.30;99.90;;;;;;4143076;28;20236;-76
2022/06/20 04:19:37;;;;;;;6.93;3.50;;;18.40;99.90;;;;;;4139412;28;20268;-77
2022/06/20 04:21:45;;;;;;;7.03;3.47;;;18.30;99.90;;;;;;4134015;28;20610;-77
2022/06/20 04:23:53;;;;;;;5.43;3.23;;;18.40;99.90;;;;;;4146997;28;20213;-76
2022/06/20 04:26:00;;;;;;;5.77;2.97;;;18.40;99.90;;;;;;4144323;28;20207;-77
2022/06/20 04:28:15;;;;;;;9.07;3.57;;;18.40;99.90;;;;;;4147789;28;20871;-77
2022/06/20 04:30:25;;;;;;;6.60;3.00;;;18.50;99.90;;;;;;4137733;28;20273;-78
2022/06/20 04:32:40;;;;;;;5.17;3.03;;;18.50;99.90;;;;;;4143179;28;20740;-77
2022/06/20 04:34:48;;;;;;;7.07;3.50;;;18.50;99.90;;;;;;4149558;28;20470;-79
2022/06/20 04:36:56;;;;;;;5.90;3.20;;;18.60;99.90;;;;;;4145064;28;20218;-80
2022/06/20 04:39:06;;;;;;;7.33;3.23;;;18.60;99.90;;;;;;4154586;28;20257;-80
2022/06/20 04:41:14;;;;;;;5.07;2.93;;;18.70;99.90;;;;;;4163319;28;20206;-78
2022/06/20 04:43:22;;;;;;;5.70;2.80;;;18.70;99.90;;;;;;4139557;28;20274;-75
2022/06/20 04:45:28;;;;;;;5.00;2.70;;;18.80;99.90;;;;;;4147402;28;20203;-75
2022/06/20 04:47:42;;;;;;;6.90;3.33;;;18.80;99.90;;;;;;4140936;28;20205;-76
2022/06/20 04:49:44;;;;;;;5.13;3.10;;;18.80;99.90;;;;;;4137353;28;20207;-75
2022/06/20 04:51:49;;;;;;;5.40;2.80;;;18.80;99.90;;;;;;4144682;28;20815;-78
2022/06/20 04:53:52;;;;;;;7.03;3.00;;;18.80;99.90;;;;;;4144998;28;20222;-78
2022/06/20 04:55:57;;;;;;;7.90;3.40;;;18.90;99.90;;;;;;4144829;28;20293;-77
2022/06/20 04:58:02;;;;;;;8.73;3.20;;;19.00;99.90;;;;;;4146729;28;20294;-77
2022/06/20 05:00:10;;;;;;;11.00;3.60;;;19.00;99.90;;;;;;4144981;28;20283;-79
2022/06/20 05:02:17;;;;;;;10.17;3.63;;;19.00;99.90;;;;;;4122431;28;20255;-78
2022/06/20 05:04:31;;;;;;;10.43;3.80;;;18.90;99.90;;;;;;4136851;28;20193;-77
2022/06/20 05:06:36;;;;;;;14.50;5.73;;;18.70;99.90;;;;;;4139757;28;20210;-77
2022/06/20 05:08:42;;;;;;;25.37;8.47;;;18.60;99.90;;;;;;4141165;28;20201;-78
2022/06/20 05:10:49;;;;;;;25.47;10.30;;;18.10;99.90;;;;;;4142764;28;20201;-82
2022/06/20 05:12:56;;;;;;;25.33;12.47;;;17.10;99.90;;;;;;4141094;28;20231;-83
2022/06/20 05:15:08;;;;;;;23.60;12.00;;;16.80;99.90;;;;;;4138861;28;20718;-83
2022/06/20 05:17:17;;;;;;;19.87;11.60;;;16.60;99.90;;;;;;4140525;28;20290;-84
2022/06/20 05:19:23;;;;;;;20.50;11.03;;;16.40;99.90;;;;;;4140104;28;20239;-81
2022/06/20 05:21:28;;;;;;;21.90;12.60;;;16.30;99.90;;;;;;4144520;28;20956;-82
2022/06/20 05:23:38;;;;;;;20.83;11.60;;;16.30;99.90;;;;;;4141980;28;20246;-83
2022/06/20 05:25:41;;;;;;;18.37;10.03;;;16.30;99.90;;;;;;4142515;28;20206;-82
2022/06/20 05:27:50;;;;;;;16.67;9.80;;;16.20;99.90;;;;;;4147371;28;20293;-80
2022/06/20 05:29:54;;;;;;;14.60;8.73;;;16.10;99.90;;;;;;4143127;28;20691;-79
2022/06/20 05:32:02;;;;;;;16.97;9.13;;;16.10;99.90;;;;;;4136110;28;20239;-80
2022/06/20 05:34:11;;;;;;;15.53;9.33;;;16.00;99.90;;;;;;4139801;28;20211;-79
2022/06/20 05:36:19;;;;;;;16.33;8.83;;;16.00;99.90;;;;;;4128248;28;20271;-79
2022/06/20 05:38:28;;;;;;;13.67;8.40;;;15.90;99.90;;;;;;4142399;28;20286;-81
2022/06/20 05:40:35;;;;;;;13.23;8.93;;;15.90;99.90;;;;;;4142308;28;20219;-80
2022/06/20 05:42:37;;;;;;;15.23;8.23;;;16.00;99.90;;;;;;4128135;28;20237;-79
2022/06/20 05:44:39;;;;;;;13.60;8.30;;;15.90;99.90;;;;;;4145640;28;20232;-82
2022/06/20 05:46:44;;;;;;;13.23;7.50;;;15.90;99.90;;;;;;4140547;28;20616;-76
2022/06/20 05:48:51;;;;;;;12.17;8.23;;;15.90;99.90;;;;;;4147701;28;20292;-76
2022/06/20 05:50:56;;;;;;;10.67;7.67;;;16.00;99.90;;;;;;4141500;28;20240;-76
2022/06/20 05:53:01;;;;;;;12.13;7.40;;;16.00;99.90;;;;;;4148549;28;20251;-75
2022/06/20 05:55:10;;;;;;;12.10;6.83;;;16.00;99.90;;;;;;4151302;28;20217;-76
2022/06/20 05:57:17;;;;;;;10.80;6.57;;;16.00;99.90;;;;;;4141409;28;20243;-76
2022/06/20 05:59:37;;;;;;;7.40;5.53;;;16.00;99.90;;;;;;4136041;28;20264;-76
2022/06/20 06:01:41;;;;;;;9.83;6.43;;;16.00;99.90;;;;;;4143925;28;20238;-76
2022/06/20 06:03:49;;;;;;;9.97;6.17;;;16.00;99.90;;;;;;4140972;28;20731;-76
2022/06/20 06:05:57;;;;;;;10.30;6.80;;;16.00;99.90;;;;;;4141923;28;20201;-79
2022/06/20 06:08:03;;;;;;;10.90;6.83;;;16.00;99.90;;;;;;4137460;28;20622;-81
2022/06/20 06:10:21;;;;;;;10.57;6.70;;;16.00;99.90;;;;;;4142686;28;20213;-81
2022/06/20 06:12:30;;;;;;;14.60;8.70;;;16.00;99.90;;;;;;4139080;28;20278;-82
2022/06/20 06:14:40;;;;;;;13.63;8.73;;;16.00;99.90;;;;;;4141574;28;20648;-80
2022/06/20 06:16:48;;;;;;;15.87;8.67;;;16.00;99.90;;;;;;4145576;28;20259;-80
2022/06/20 06:18:55;;;;;;;13.27;8.10;;;15.90;99.90;;;;;;4144369;28;20694;-81
2022/06/20 06:20:57;;;;;;;14.03;8.87;;;15.90;99.90;;;;;;4143780;28;20786;-80
2022/06/20 06:23:05;;;;;;;11.53;8.20;;;16.00;99.90;;;;;;4142527;28;20233;-80
2022/06/20 06:25:19;;;;;;;15.30;9.20;;;16.00;99.90;;;;;;4151000;28;20234;-80
2022/06/20 06:27:24;;;;;;;13.73;9.00;;;16.00;99.90;;;;;;4170144;28;20209;-80
2022/06/20 06:29:42;;;;;;;16.83;10.10;;;15.90;99.90;;;;;;4144234;28;20203;-79
2022/06/20 06:31:47;;;;;;;13.87;8.83;;;15.90;99.90;;;;;;4150685;28;20237;-79
2022/06/20 06:33:56;;;;;;;14.77;9.90;;;15.90;99.90;;;;;;4146085;28;20660;-80
2022/06/20 06:36:04;;;;;;;12.87;7.90;;;16.00;99.90;;;;;;4153404;28;20203;-81
2022/06/20 06:38:10;;;;;;;13.37;9.03;;;16.00;99.90;;;;;;4147742;28;20299;-82
2022/06/20 06:40:17;;;;;;;16.10;9.90;;;16.00;99.90;;;;;;4150165;28;20317;-79
2022/06/20 06:42:20;;;;;;;17.30;10.27;;;16.00;99.90;;;;;;4156908;28;20230;-81
2022/06/20 06:44:31;;;;;;;19.03;10.70;;;16.00;99.90;;;;;;4149167;28;20647;-81
2022/06/20 06:46:38;;;;;;;17.43;9.60;;;16.00;99.90;;;;;;4159899;28;20213;-80
2022/06/20 06:48:46;;;;;;;13.97;9.33;;;16.00;99.90;;;;;;4145985;28;20204;-83
2022/06/20 06:50:54;;;;;;;11.60;8.30;;;16.00;99.90;;;;;;4142528;28;20199;-81
2022/06/20 06:53:02;;;;;;;12.43;8.40;;;16.10;99.90;;;;;;4158891;28;20377;-80
2022/06/20 06:55:19;;;;;;;12.20;8.27;;;16.30;99.90;;;;;;4159225;28;20279;-79
2022/06/20 06:57:28;;;;;;;12.07;9.13;;;16.20;99.90;;;;;;4159974;28;20331;-79
2022/06/20 06:59:36;;;;;;;15.40;9.03;;;16.20;99.90;;;;;;4145624;28;20775;-79
2022/06/20 07:01:43;;;;;;;14.07;8.87;;;16.30;99.90;;;;;;4147501;28;20686;-78
2022/06/20 07:03:49;;;;;;;10.03;7.60;;;16.30;99.90;;;;;;4138966;28;20226;-79
2022/06/20 07:05:57;;;;;;;12.73;8.67;;;16.40;99.90;;;;;;4143387;28;20232;-78
2022/06/20 07:08:04;;;;;;;14.70;8.80;;;16.40;99.90;;;;;;4144647;28;20288;-78
2022/06/20 07:10:12;;;;;;;15.03;9.27;;;16.40;99.90;;;;;;4142926;28;20974;-78
2022/06/20 07:12:18;;;;;;;14.50;8.80;;;16.40;99.90;;;;;;4143043;28;20630;-79
2022/06/20 07:14:22;;;;;;;19.00;11.27;;;16.40;99.90;;;;;;4141820;28;20620;-78
2022/06/20 07:16:28;;;;;;;26.17;12.23;;;16.40;99.90;;;;;;4144656;28;20231;-78
2022/06/20 07:18:39;;;;;;;16.93;10.77;;;16.30;99.90;;;;;;4133533;28;20236;-78
2022/06/20 07:20:43;;;;;;;29.00;13.70;;;16.20;99.90;;;;;;4146225;28;20245;-79
2022/06/20 07:22:48;;;;;;;25.97;13.10;;;16.20;99.90;;;;;;4138275;28;20231;-78
2022/06/20 07:24:52;;;;;;;22.10;12.20;;;16.10;99.90;;;;;;4140173;28;20221;-79
2022/06/20 07:27:01;;;;;;;20.97;12.10;;;16.00;99.90;;;;;;4155413;28;20741;-79
2022/06/20 07:29:08;;;;;;;21.20;12.13;;;16.10;99.90;;;;;;4151391;28;20213;-78
2022/06/20 07:31:17;;;;;;;19.57;10.43;;;16.10;99.90;;;;;;4135874;28;20215;-78
2022/06/20 07:33:25;;;;;;;15.40;9.27;;;16.20;99.90;;;;;;4141006;28;20228;-78
2022/06/20 07:35:30;;;;;;;16.73;10.40;;;16.20;99.90;;;;;;4142257;28;20302;-78
2022/06/20 07:37:38;;;;;;;22.97;12.47;;;16.30;99.90;;;;;;4142222;28;20208;-78
2022/06/20 07:39:47;;;;;;;20.20;11.73;;;16.30;99.90;;;;;;4138194;28;20206;-78
2022/06/20 07:41:55;;;;;;;19.30;11.20;;;16.40;99.90;;;;;;4123255;28;20211;-79
2022/06/20 07:44:03;;;;;;;23.30;12.87;;;16.40;99.90;;;;;;4142500;28;20234;-78
2022/06/20 07:46:09;;;;;;;21.07;11.37;;;16.40;99.90;;;;;;4137084;28;20227;-79
2022/06/20 07:48:16;;;;;;;19.13;11.70;;;16.40;99.90;;;;;;4132165;28;20216;-79
2022/06/20 07:50:23;;;;;;;19.43;12.27;;;16.40;99.90;;;;;;4139684;28;20212;-79
2022/06/20 07:52:31;;;;;;;18.13;11.10;;;16.50;99.90;;;;;;4156749;28;20245;-79
2022/06/20 07:54:37;;;;;;;19.90;12.07;;;16.50;99.90;;;;;;4156546;28;20264;-79
2022/06/20 07:56:45;;;;;;;21.60;11.70;;;16.50;99.90;;;;;;4144593;28;20204;-79
2022/06/20 07:58:54;;;;;;;17.63;11.80;;;16.50;99.90;;;;;;4141976;28;20227;-80
2022/06/20 08:00:58;;;;;;;20.40;12.70;;;16.50;99.90;;;;;;4138881;28;20699;-79
2022/06/20 08:03:10;;;;;;;20.93;12.70;;;16.60;99.90;;;;;;4138640;28;20616;-79
2022/06/20 08:05:15;;;;;;;16.87;10.97;;;16.50;99.90;;;;;;4137870;28;20334;-80
2022/06/20 08:07:24;;;;;;;28.80;14.53;;;16.50;99.90;;;;;;4140124;28;20208;-79
2022/06/20 08:09:33;;;;;;;23.00;13.80;;;16.50;99.90;;;;;;4139623;28;20219;-79
2022/06/20 08:11:45;;;;;;;23.57;13.77;;;16.50;99.90;;;;;;4137060;28;20227;-79
2022/06/20 08:13:52;;;;;;;19.33;12.93;;;16.50;99.90;;;;;;4137638;28;20224;-79
2022/06/20 08:15:58;;;;;;;24.27;14.00;;;16.50;99.90;;;;;;4138791;28;20678;-79
2022/06/20 08:18:01;;;;;;;20.30;12.73;;;16.50;99.90;;;;;;4154101;28;20219;-78
2022/06/20 08:20:03;;;;;;;21.13;13.53;;;16.40;99.90;;;;;;4133078;28;20314;-79
2022/06/20 08:22:12;;;;;;;21.93;13.40;;;16.40;99.90;;;;;;4155411;28;20238;-79
2022/06/20 08:24:19;;;;;;;21.83;12.93;;;16.30;99.90;;;;;;4156449;28;20956;-78
2022/06/20 08:26:25;;;;;;;19.90;13.20;;;16.30;99.90;;;;;;4154818;28;20209;-79
2022/06/20 08:28:34;;;;;;;21.90;14.20;;;16.30;99.90;;;;;;4135066;28;20207;-79
2022/06/20 08:30:42;;;;;;;17.83;12.37;;;16.30;99.90;;;;;;4143057;28;20237;-79
2022/06/20 08:32:54;;;;;;;16.10;12.20;;;16.30;99.90;;;;;;4143334;28;20280;-78
2022/06/20 08:35:03;;;;;;;25.13;15.50;;;16.20;99.90;;;;;;4140587;28;20230;-78
2022/06/20 08:37:10;;;;;;;20.23;12.83;;;16.20;99.90;;;;;;4136691;28;20220;-79
2022/06/20 08:39:18;;;;;;;21.33;13.70;;;16.20;99.90;;;;;;4142952;28;20215;-79
2022/06/20 08:41:41;;;;;;;20.37;13.60;;;16.10;99.90;;;;;;4138943;28;20301;-78
2022/06/20 08:44:34;;;;;;;17.40;12.27;;;16.20;99.90;;;;;;4136170;28;20277;-78
2022/06/20 08:47:07;;;;;;;17.97;11.43;;;16.20;99.90;;;;;;4127117;28;20228;-76
2022/06/20 08:49:33;;;;;;;14.80;10.83;;;16.20;99.90;;;;;;4141545;28;20223;-78
2022/06/20 08:52:10;;;;;;;19.00;12.23;;;16.20;99.90;;;;;;4139967;28;20216;-78
2022/06/20 08:54:39;;;;;;;19.43;13.83;;;16.20;99.90;;;;;;4139155;28;20200;-78
2022/06/20 08:57:03;;;;;;;18.47;12.23;;;16.10;99.90;;;;;;4141962;28;20212;-78
2022/06/20 08:59:16;;;;;;;23.43;14.30;;;16.10;99.90;;;;;;4122205;28;20207;-78
2022/06/20 09:01:26;;;;;;;22.33;14.37;;;16.10;99.90;;;;;;4153448;28;20229;-78
2022/06/20 09:04:21;;;;;;;29.07;17.37;;;16.20;99.90;;;;;;4139369;28;20262;-78
2022/06/20 09:06:46;;;;;;;28.03;16.43;;;16.10;99.90;;;;;;4129198;28;20330;-79
2022/06/20 09:09:44;;;;;;;23.67;14.70;;;16.00;99.90;;;;;;4140676;28;20492;-78
2022/06/20 09:11:57;;;;;;;28.13;17.47;;;16.00;99.90;;;;;;4117425;28;20294;-78
2022/06/20 09:14:26;;;;;;;26.60;17.53;;;16.10;99.90;;;;;;4120587;28;20701;-78
2022/06/20 09:16:36;;;;;;;24.53;15.63;;;16.20;99.90;;;;;;4126409;28;20246;-78
2022/06/20 09:18:54;;;;;;;25.40;16.73;;;16.10;99.90;;;;;;4122825;28;20752;-78
2022/06/20 09:21:08;;;;;;;23.77;15.90;;;16.10;99.90;;;;;;4126596;28;20305;-78
2022/06/20 09:23:37;;;;;;;24.03;15.80;;;16.10;99.90;;;;;;4135220;28;20281;-79
2022/06/20 09:25:55;;;;;;;28.33;18.00;;;16.00;99.90;;;;;;4133037;28;20220;-78
2022/06/20 09:28:20;;;;;;;34.70;22.57;;;16.10;99.90;;;;;;4119682;28;20216;-79
2022/06/20 09:33:32;;;;;;;33.13;19.20;;;16.00;99.90;;;;;;4138727;28;20238;-79
2022/06/20 09:36:02;;;;;;;26.17;16.93;;;16.10;99.90;;;;;;4142351;28;20291;-78
2022/06/20 09:38:32;;;;;;;23.03;15.70;;;16.10;99.90;;;;;;4136207;28;20230;-78
2022/06/20 09:40:42;;;;;;;29.83;19.00;;;16.10;99.90;;;;;;4134431;28;20220;-79
2022/06/20 09:42:51;;;;;;;26.10;18.23;;;16.10;99.90;;;;;;4135662;28;20247;-78
2022/06/20 09:45:05;;;;;;;22.77;15.27;;;16.10;99.90;;;;;;4139146;28;20233;-78
2022/06/20 09:47:22;;;;;;;19.07;12.57;;;16.10;99.90;;;;;;4151516;28;20992;-77
2022/06/20 09:49:34;;;;;;;17.97;11.53;;;16.10;99.90;;;;;;4139689;28;20203;-78
2022/06/20 09:51:48;;;;;;;15.67;9.83;;;15.90;99.90;;;;;;4148137;28;20689;-82
2022/06/20 09:54:03;;;;;;;12.43;9.63;;;15.80;99.90;;;;;;4145273;28;20205;-80
2022/06/20 09:56:13;;;;;;;14.93;9.50;;;15.90;99.90;;;;;;4128269;28;20332;-76
2022/06/20 09:58:23;;;;;;;11.53;9.17;;;16.00;99.90;;;;;;4134849;28;20297;-78
2022/06/20 10:00:32;;;;;;;14.30;9.23;;;15.90;99.90;;;;;;4143336;28;20210;-77
2022/06/20 10:02:47;;;;;;;14.50;9.37;;;15.90;99.90;;;;;;4151902;28;20237;-75
2022/06/20 10:04:57;;;;;;;12.93;9.13;;;15.90;99.90;;;;;;4132670;28;20256;-80
2022/06/20 10:07:08;;;;;;;15.20;9.90;;;15.90;99.90;;;;;;4122657;28;20212;-77
2022/06/20 10:09:19;;;;;;;11.00;8.00;;;15.90;99.90;;;;;;4141989;28;20202;-78
2022/06/20 10:11:28;;;;;;;14.90;8.40;;;15.80;99.90;;;;;;4147343;28;20218;-76
2022/06/20 10:13:37;;;;;;;11.43;8.63;;;15.80;99.90;;;;;;4119327;28;20243;-78
2022/06/20 10:15:46;;;;;;;15.50;8.83;;;15.80;99.90;;;;;;4130135;28;20210;-77
2022/06/20 10:17:59;;;;;;;10.43;7.07;;;15.80;99.90;;;;;;4142267;28;20218;-79
2022/06/20 10:20:12;;;;;;;12.47;7.27;;;15.70;99.90;;;;;;4134176;28;20215;-76
2022/06/20 10:22:24;;;;;;;9.10;6.43;;;15.80;99.90;;;;;;4136058;28;20417;-76
2022/06/20 10:24:46;;;;;;;10.43;7.97;;;15.80;99.90;;;;;;4151152;28;20207;-78
2022/06/20 10:27:44;;;;;;;14.70;8.70;;;15.50;99.90;;;;;;4160198;28;20735;-82
2022/06/20 10:30:01;;;;;;;10.87;7.73;;;15.70;99.90;;;;;;4096591;28;20646;-76
2022/06/20 10:32:14;;;;;;;15.20;9.93;;;15.80;99.90;;;;;;4108269;28;20316;-77
2022/06/20 10:34:28;;;;;;;13.03;8.93;;;15.70;99.90;;;;;;4123548;28;20684;-78
2022/06/20 10:36:46;;;;;;;14.13;8.70;;;15.80;99.90;;;;;;4149137;28;20199;-77
2022/06/20 10:39:08;;;;;;;14.53;8.90;;;15.70;99.90;;;;;;4146324;28;20293;-82
2022/06/20 10:41:20;;;;;;;12.73;9.10;;;15.70;99.90;;;;;;4144457;28;20675;-85
2022/06/20 10:43:37;;;;;;;16.33;9.27;;;15.50;99.90;;;;;;4145398;28;20624;-84
2022/06/20 10:45:47;;;;;;;17.83;8.63;;;15.40;99.90;;;;;;4141920;28;20236;-77
2022/06/20 10:48:02;;;;;;;16.90;9.17;;;15.40;99.90;;;;;;4121746;28;20219;-79
2022/06/20 10:50:18;;;;;;;16.17;9.37;;;15.40;99.90;;;;;;4140525;28;20237;-76
2022/06/20 10:52:44;;;;;;;17.83;10.27;;;15.40;99.90;;;;;;4139452;28;20226;-76
2022/06/20 10:55:00;;;;;;;19.77;10.37;;;15.20;99.90;;;;;;4137054;28;20284;-78
2022/06/20 10:57:14;;;;;;;16.90;10.10;;;15.30;99.90;;;;;;4143747;28;20196;-79
2022/06/20 10:59:28;;;;;;;13.70;8.47;;;15.20;99.90;;;;;;4144219;28;20225;-78
2022/06/20 11:01:41;;;;;;;11.23;6.77;;;15.00;99.90;;;;;;4141266;28;20212;-76
2022/06/20 11:04:07;;;;;;;11.17;5.73;;;14.80;99.90;;;;;;4139305;28;20642;-83
2022/06/20 11:06:22;;;;;;;7.03;4.97;;;14.70;99.90;;;;;;4137367;28;20241;-76
2022/06/20 11:08:37;;;;;;;8.80;5.17;;;14.60;99.90;;;;;;4122036;28;20966;-76
2022/06/20 11:10:56;;;;;;;7.30;5.33;;;14.90;99.90;;;;;;4140373;28;20762;-77
2022/06/20 11:13:07;;;;;;;6.70;4.43;;;14.60;99.90;;;;;;4121623;28;20625;-77
2022/06/20 11:15:20;;;;;;;7.03;4.50;;;14.40;99.90;;;;;;4141346;28;20254;-80
2022/06/20 11:17:33;;;;;;;8.07;4.80;;;14.30;99.90;;;;;;4142637;28;20295;-79
2022/06/20 11:19:53;;;;;;;8.83;4.47;;;14.30;99.90;;;;;;4135985;28;20211;-77
2022/06/20 11:22:16;;;;;;;7.50;4.23;;;14.30;99.90;;;;;;4142004;28;20236;-79
2022/06/20 11:24:31;;;;;;;9.83;4.90;;;14.30;99.90;;;;;;4129213;28;20209;-79
2022/06/20 11:26:43;;;;;;;10.27;5.30;;;14.20;99.90;;;;;;4141003;28;20212;-76
2022/06/20 11:29:12;;;;;;;9.47;4.90;;;14.20;99.90;;;;;;4140483;28;20265;-77
2022/06/20 11:31:23;;;;;;;9.20;4.33;;;14.10;99.90;;;;;;4152980;28;20208;-76
2022/06/20 11:36:03;;;;;;;8.87;4.90;;;14.00;99.90;;;;;;4160234;28;20199;-78
2022/06/20 11:38:32;;;;;;;9.03;5.20;;;14.10;99.90;;;;;;4126061;28;20208;-77
2022/06/20 11:40:44;;;;;;;14.77;5.67;;;13.90;99.90;;;;;;4126882;28;20216;-78
2022/06/20 11:43:20;;;;;;;9.67;5.20;;;13.90;99.90;;;;;;4143153;28;20224;-80
2022/06/20 11:45:44;;;;;;;10.90;5.93;;;13.90;99.90;;;;;;4139691;28;20235;-76
2022/06/20 11:48:19;;;;;;;13.20;6.30;;;13.90;99.90;;;;;;4142272;28;20636;-76
2022/06/20 11:50:35;;;;;;;11.80;5.93;;;13.90;99.90;;;;;;4155640;28;20619;-76
2022/06/20 11:52:45;;;;;;;8.23;5.70;;;13.90;99.90;;;;;;4138804;28;20231;-77
2022/06/20 11:54:54;;;;;;;8.63;5.37;;;13.90;99.90;;;;;;4140084;28;20235;-76
2022/06/20 11:57:04;;;;;;;9.20;5.93;;;13.80;99.90;;;;;;4142472;28;20203;-79
2022/06/20 11:59:22;;;;;;;9.27;5.80;;;13.50;99.90;;;;;;4138021;28;20212;-81
2022/06/20 12:01:30;;;;;;;9.63;5.57;;;13.80;99.90;;;;;;4144137;28;20681;-79
2022/06/20 12:03:42;;;;;;;11.03;6.03;;;13.80;99.90;;;;;;4144436;28;20711;-80
2022/06/20 12:05:51;;;;;;;12.00;7.10;;;13.80;99.90;;;;;;4136321;28;20258;-78
2022/06/20 12:07:59;;;;;;;9.27;6.13;;;13.80;99.90;;;;;;4141250;28;20217;-78
2022/06/20 12:10:08;;;;;;;11.43;6.87;;;13.90;99.90;;;;;;4122089;28;20243;-78
2022/06/20 12:12:24;;;;;;;10.17;6.50;;;13.70;99.90;;;;;;4138563;28;20311;-77
2022/06/20 12:14:37;;;;;;;10.50;6.60;;;13.70;99.90;;;;;;4140338;28;20208;-80
2022/06/20 12:16:52;;;;;;;10.53;6.60;;;13.70;99.90;;;;;;4136799;28;20222;-76
2022/06/20 12:23:53;;;;;;;9.40;5.13;;;13.60;99.90;;;;;;4140236;28;20627;-76
2022/06/20 12:26:00;;;;;;;7.07;4.50;;;13.50;99.90;;;;;;4138186;28;20233;-77
2022/06/20 12:28:03;;;;;;;4.87;3.20;;;13.50;99.90;;;;;;4143818;28;20238;-76
2022/06/20 12:30:14;;;;;;;6.07;3.23;;;13.40;99.90;;;;;;4138059;28;20209;-78
2022/06/20 12:32:18;;;;;;;4.27;2.50;;;13.30;99.90;;;;;;4138278;28;20231;-77
2022/06/20 12:34:43;;;;;;;3.00;2.43;;;13.30;99.90;;;;;;4127727;28;20258;-79
2022/06/20 12:36:55;;;;;;;3.87;2.17;;;13.10;99.90;;;;;;4141698;28;20689;-83
2022/06/20 12:39:02;;;;;;;2.73;2.00;;;13.00;99.90;;;;;;4142399;28;20232;-82
2022/06/20 12:41:10;;;;;;;2.63;1.80;;;12.90;99.90;;;;;;4151491;28;20217;-80
2022/06/20 12:43:15;;;;;;;2.50;1.40;;;12.80;99.90;;;;;;4141944;28;20226;-77
2022/06/20 12:45:49;;;;;;;2.10;1.50;;;12.70;99.90;;;;;;4141309;28;20226;-81
2022/06/20 12:48:16;;;;;;;4.53;1.60;;;12.60;99.90;;;;;;4148616;28;20221;-77
2022/06/20 12:50:24;;;;;;;5.17;2.10;;;12.60;99.90;;;;;;4138873;28;20608;-74
2022/06/20 12:52:34;;;;;;;3.60;1.70;;;12.60;99.90;;;;;;4136307;28;20230;-76
2022/06/20 12:55:08;;;;;;;6.83;2.30;;;12.40;99.90;;;;;;4136207;28;20688;-77
2022/06/20 12:57:28;;;;;;;3.50;1.57;;;12.40;99.90;;;;;;4131444;28;20219;-82
2022/06/20 12:59:47;;;;;;;5.03;1.80;;;12.40;99.90;;;;;;4135019;28;20209;-79
2022/06/20 13:01:55;;;;;;;2.07;1.60;;;12.30;99.90;;;;;;4123776;28;20234;-77
2022/06/20 13:04:35;;;;;;;3.30;1.70;;;12.30;99.90;;;;;;4138607;28;20301;-79
2022/06/20 13:06:49;;;;;;;2.87;1.70;;;12.40;99.90;;;;;;4150291;28;20319;-78
2022/06/20 13:09:10;;;;;;;2.00;1.70;;;12.40;99.90;;;;;;4147479;28;20243;-78
2022/06/20 13:11:28;;;;;;;5.97;2.00;;;12.40;99.90;;;;;;4138936;28;20587;-78
2022/06/20 13:14:05;;;;;;;6.23;1.60;;;12.30;99.90;;;;;;4144161;28;20246;-77
2022/06/20 13:16:15;;;;;;;5.20;1.87;;;12.30;99.90;;;;;;4142296;28;20288;-77
2022/06/20 13:18:42;;;;;;;3.13;2.17;;;12.20;99.90;;;;;;4153227;28;20220;-78
2022/06/20 13:20:54;;;;;;;2.40;2.10;;;12.20;99.90;;;;;;4146089;28;20669;-77
2022/06/20 13:23:09;;;;;;;3.17;1.80;;;12.10;99.90;;;;;;4134893;28;20656;-77
2022/06/20 13:25:27;;;;;;;2.87;1.90;;;12.10;99.90;;;;;;4143610;28;20278;-78
2022/06/20 13:27:37;;;;;;;4.23;2.07;;;12.10;99.90;;;;;;4139248;28;20207;-77
2022/06/20 13:29:47;;;;;;;3.13;1.80;;;11.90;99.90;;;;;;4136964;28;20208;-77
2022/06/20 13:31:55;;;;;;;3.77;2.00;;;12.00;99.90;;;;;;4139031;28;20934;-77
2022/06/20 13:34:05;;;;;;;3.70;1.70;;;12.10;99.90;;;;;;4122053;28;20219;-76
2022/06/20 13:36:20;;;;;;;3.03;1.63;;;12.10;99.90;;;;;;4140811;28;20639;-76
2022/06/20 13:38:29;;;;;;;3.20;1.60;;;12.00;99.90;;;;;;4138343;28;20247;-78
2022/06/20 13:40:45;;;;;;;3.70;1.63;;;12.10;99.90;;;;;;4143111;28;20209;-77
2022/06/20 13:42:54;;;;;;;2.80;1.70;;;12.00;99.90;;;;;;4139587;28;20236;-77
2022/06/20 13:45:02;;;;;;;3.37;2.10;;;12.10;99.90;;;;;;4142466;28;20211;-80
2022/06/20 13:47:16;;;;;;;4.20;2.00;;;12.20;99.90;;;;;;4141272;28;20301;-79
2022/06/20 13:49:28;;;;;;;2.60;1.90;;;12.20;99.90;;;;;;4143584;28;20208;-77
2022/06/20 13:51:36;;;;;;;5.33;2.50;;;12.30;99.90;;;;;;4143223;28;20956;-77
2022/06/20 13:53:45;;;;;;;3.63;2.30;;;12.60;99.90;;;;;;4124351;28;20232;-77
2022/06/20 13:55:53;;;;;;;3.47;2.30;;;12.40;99.90;;;;;;4121641;28;20244;-78
2022/06/20 13:58:02;;;;;;;4.57;2.30;;;12.50;99.90;;;;;;4138808;28;20266;-78
2022/06/20 14:00:19;;;;;;;4.40;2.10;;;12.50;99.90;;;;;;4140319;28;20854;-78
2022/06/20 14:06:07;;;;;;;9.67;2.10;;;12.50;99.90;;;;;;4110546;28;20291;-78
2022/06/20 14:08:29;;;;;;;;;;;;;;;;;;;;;
2022/06/20 14:11:25;;;;;;;3.00;2.00;;;12.60;99.90;;;;;;4133818;28;20241;-79
2022/06/20 14:17:09;;;;;;;2.90;2.20;;;12.70;99.90;;;;;;4144415;28;20211;-77
2022/06/20 14:19:29;;;;;;;3.90;1.93;;;12.70;99.90;;;;;;4132986;28;20234;-78
2022/06/20 14:22:27;;;;;;;4.87;2.30;;;12.80;99.90;;;;;;4136371;28;20207;-78
2022/06/20 14:24:37;;;;;;;4.90;2.40;;;12.90;99.90;;;;;;4137763;28;20211;-80
2022/06/20 14:26:42;;;;;;;3.77;2.43;;;13.10;99.90;;;;;;4144208;28;20222;-77
2022/06/20 14:28:48;;;;;;;4.77;2.80;;;13.10;99.90;;;;;;4172628;28;20210;-77
2022/06/20 14:30:58;;;;;;;4.70;2.83;;;13.20;99.90;;;;;;4144849;28;20224;-79
2022/06/20 14:33:05;;;;;;;5.73;3.00;;;13.30;99.90;;;;;;4144172;28;20885;-77
2022/06/20 14:35:24;;;;;;;4.50;2.97;;;13.20;99.90;;;;;;4142204;28;20610;-78
2022/06/20 14:37:36;;;;;;;3.40;2.80;;;13.50;99.90;;;;;;4138938;28;20210;-79
2022/06/20 14:39:44;;;;;;;3.23;2.50;;;13.50;99.90;;;;;;4141136;28;20285;-76
2022/06/20 14:42:00;;;;;;;5.33;3.03;;;13.70;99.90;;;;;;4137754;28;20234;-77
2022/06/20 14:44:30;;;;;;;5.60;2.70;;;13.80;99.90;;;;;;4130435;28;20754;-77
2022/06/20 14:46:49;;;;;;;5.70;3.20;;;13.90;99.90;;;;;;4143657;28;20235;-79
2022/06/20 14:48:54;;;;;;;4.40;3.03;;;14.00;99.90;;;;;;4137506;28;20219;-79
2022/06/20 14:51:05;;;;;;;4.23;2.70;;;14.00;99.90;;;;;;4144934;28;20690;-78
2022/06/20 14:53:17;;;;;;;5.00;3.40;;;13.90;99.90;;;;;;4143154;28;20807;-79
2022/06/20 14:55:29;;;;;;;4.80;3.10;;;14.00;99.90;;;;;;4143984;28;20212;-79
2022/06/20 14:57:38;;;;;;;4.13;3.00;;;14.10;99.90;;;;;;4143362;28;20290;-76
2022/06/20 14:59:55;;;;;;;3.97;3.10;;;14.10;99.90;;;;;;4142398;28;20291;-77
2022/06/20 15:02:01;;;;;;;4.53;3.00;;;14.20;99.90;;;;;;4143276;28;20200;-76